Time;durP1;ratioP1;P1;durP2;ratioP2;P2;SDS_P1;SDS_P2;PMS_P1;PMS_P2;Temp;Humidity;BMP_temperature;BMP_pressure;BME280_temperature;BME280_humidity;BME280_pressure;Samples;Min_cycle;Max_cycle;Signal;HPM_P1;HPM_P2
2021/08/29 04:00:31;;;;;;;12.17;10.97;;;14.20;99.90;;;;;;5985107;23;20443;-65
2021/08/29 04:02:58;;;;;;;11.80;10.00;;;14.20;99.90;;;;;;5013766;28;20438;-66
2021/08/29 04:05:25;;;;;;;11.17;10.10;;;14.20;99.90;;;;;;5013869;28;20476;-66
2021/08/29 04:07:55;;;;;;;11.70;10.53;;;14.10;99.90;;;;;;5013928;28;20940;-64
2021/08/29 04:10:23;;;;;;;11.30;10.20;;;14.20;99.90;;;;;;5014034;28;20491;-64
2021/08/29 04:12:50;;;;;;;14.80;13.07;;;14.10;99.90;;;;;;5013967;28;20959;-62
2021/08/29 04:15:18;;;;;;;13.03;11.57;;;14.00;99.90;;;;;;5014269;28;20477;-64
2021/08/29 04:17:47;;;;;;;15.70;11.30;;;14.00;99.90;;;;;;5016763;28;20464;-65
2021/08/29 04:20:14;;;;;;;15.60;12.00;;;13.90;99.90;;;;;;5017944;28;20459;-65
2021/08/29 04:22:41;;;;;;;14.80;11.30;;;13.90;99.90;;;;;;5017040;28;20456;-65
2021/08/29 04:25:10;;;;;;;20.43;13.57;;;13.90;99.90;;;;;;5016976;28;20998;-65
2021/08/29 04:27:37;;;;;;;15.40;13.53;;;13.90;99.90;;;;;;5017211;28;20452;-65
2021/08/29 04:30:05;;;;;;;17.50;12.67;;;13.90;99.90;;;;;;5017230;28;20460;-65
2021/08/29 04:32:33;;;;;;;14.90;13.07;;;13.90;99.90;;;;;;5016981;28;20476;-65
2021/08/29 04:35:01;;;;;;;12.90;11.60;;;13.90;99.90;;;;;;5017052;28;20473;-65
2021/08/29 04:37:27;;;;;;;21.73;12.80;;;14.00;99.90;;;;;;5017071;28;20456;-65
2021/08/29 04:39:54;;;;;;;14.23;12.60;;;14.00;99.90;;;;;;5017144;28;20457;-65
2021/08/29 04:42:21;;;;;;;17.90;13.87;;;14.00;99.90;;;;;;5016920;28;20477;-65
2021/08/29 04:44:48;;;;;;;15.50;12.60;;;14.00;99.90;;;;;;5017038;28;20448;-65
2021/08/29 04:47:14;;;;;;;15.97;13.40;;;14.00;99.90;;;;;;5016637;28;20457;-65
2021/08/29 04:49:41;;;;;;;20.17;13.67;;;14.00;99.90;;;;;;5016835;28;20458;-65
2021/08/29 04:52:09;;;;;;;18.63;14.10;;;14.00;99.90;;;;;;5016807;28;20476;-65
2021/08/29 04:54:36;;;;;;;17.80;13.60;;;14.10;99.90;;;;;;5018916;28;20476;-65
2021/08/29 04:57:03;;;;;;;18.93;13.93;;;14.10;99.90;;;;;;5027746;28;20943;-65
2021/08/29 04:59:30;;;;;;;16.30;13.70;;;14.00;99.90;;;;;;5017686;28;20453;-65
2021/08/29 05:01:56;;;;;;;17.00;13.70;;;14.00;99.90;;;;;;5016840;28;20854;-65
2021/08/29 05:04:23;;;;;;;17.37;13.73;;;14.00;99.90;;;;;;5016513;28;20453;-65
2021/08/29 05:06:50;;;;;;;15.73;14.07;;;14.10;99.90;;;;;;5016420;28;20460;-65
2021/08/29 05:09:18;;;;;;;18.03;14.10;;;14.00;99.90;;;;;;5016083;28;20467;-65
2021/08/29 05:11:44;;;;;;;19.63;13.60;;;14.00;99.90;;;;;;5017158;28;20473;-67
2021/08/29 05:14:11;;;;;;;15.07;13.57;;;14.00;99.90;;;;;;5016135;28;20844;-65
2021/08/29 05:16:38;;;;;;;14.27;12.80;;;14.00;99.90;;;;;;5016256;28;20460;-65
2021/08/29 05:19:04;;;;;;;16.50;12.70;;;14.00;99.90;;;;;;5016216;28;20460;-65
2021/08/29 05:21:31;;;;;;;13.27;11.97;;;14.00;99.90;;;;;;5015717;28;20476;-65
2021/08/29 05:23:58;;;;;;;14.17;12.67;;;14.00;99.90;;;;;;5016103;28;20789;-65
2021/08/29 05:26:26;;;;;;;15.60;13.57;;;14.00;99.90;;;;;;5015714;28;20800;-65
2021/08/29 05:28:52;;;;;;;15.33;12.17;;;14.10;99.90;;;;;;5015344;28;20464;-65
2021/08/29 05:31:19;;;;;;;12.57;11.10;;;14.10;99.90;;;;;;5015961;28;20564;-65
2021/08/29 05:33:46;;;;;;;16.43;13.20;;;14.10;99.90;;;;;;5015918;28;20456;-65
2021/08/29 05:36:13;;;;;;;13.00;11.43;;;14.20;99.90;;;;;;5015955;28;20453;-64
2021/08/29 05:38:40;;;;;;;16.60;12.50;;;14.20;99.90;;;;;;5015651;28;20453;-65
2021/08/29 05:41:06;;;;;;;14.20;12.40;;;14.20;99.90;;;;;;5015843;28;20476;-65
2021/08/29 05:43:34;;;;;;;12.27;11.03;;;14.20;99.90;;;;;;5015543;28;20952;-65
2021/08/29 05:46:01;;;;;;;12.37;10.90;;;14.30;99.90;;;;;;5015862;28;20804;-65
2021/08/29 05:48:28;;;;;;;11.77;10.33;;;14.30;99.90;;;;;;5015655;28;20471;-67
2021/08/29 05:50:55;;;;;;;12.13;10.60;;;14.30;99.90;;;;;;5015720;28;20477;-66
2021/08/29 05:53:21;;;;;;;10.97;9.87;;;14.30;99.90;;;;;;5015702;28;20459;-66
2021/08/29 05:55:48;;;;;;;10.07;9.00;;;14.20;99.90;;;;;;5015589;28;20477;-66
2021/08/29 05:58:15;;;;;;;9.40;8.00;;;14.20;99.90;;;;;;5015558;28;20464;-66
2021/08/29 06:00:43;;;;;;;6.47;5.87;;;14.20;99.90;;;;;;5015286;28;20480;-67
2021/08/29 06:03:09;;;;;;;8.10;7.30;;;14.20;99.90;;;;;;5016506;28;20437;-67
2021/08/29 06:05:36;;;;;;;8.20;7.20;;;14.20;99.90;;;;;;5016238;28;20460;-66
2021/08/29 06:08:03;;;;;;;6.80;6.20;;;14.10;99.90;;;;;;5015425;28;20515;-66
2021/08/29 06:10:30;;;;;;;6.23;5.70;;;14.10;99.90;;;;;;5015526;28;20456;-67
2021/08/29 06:12:57;;;;;;;5.50;5.00;;;14.10;99.90;;;;;;5015357;28;20460;-67
2021/08/29 06:15:23;;;;;;;7.60;6.13;;;14.10;99.90;;;;;;5015237;28;20488;-66
2021/08/29 06:17:51;;;;;;;8.40;6.97;;;14.10;99.90;;;;;;5015269;28;20461;-66
2021/08/29 06:20:18;;;;;;;7.23;6.53;;;14.20;99.90;;;;;;5015299;28;20814;-66
2021/08/29 06:22:45;;;;;;;8.43;7.60;;;14.10;99.90;;;;;;5023976;28;20480;-67
2021/08/29 06:25:12;;;;;;;7.43;6.83;;;14.10;99.90;;;;;;5024140;28;20460;-66
2021/08/29 06:27:38;;;;;;;7.70;6.40;;;14.00;99.90;;;;;;5015334;28;20503;-67
2021/08/29 06:30:06;;;;;;;7.33;6.70;;;14.00;99.90;;;;;;5014921;28;20856;-67
2021/08/29 06:32:33;;;;;;;7.10;6.50;;;14.10;99.90;;;;;;5014916;28;20875;-66
2021/08/29 06:35:01;;;;;;;6.70;6.10;;;14.10;99.90;;;;;;5014954;28;20473;-66
2021/08/29 06:37:28;;;;;;;7.00;6.30;;;14.10;99.90;;;;;;5015171;28;20480;-66
2021/08/29 06:39:54;;;;;;;7.47;6.77;;;14.00;99.90;;;;;;5014017;28;20457;-67
2021/08/29 06:42:21;;;;;;;6.90;6.30;;;13.90;99.90;;;;;;5014454;28;20472;-66
2021/08/29 06:44:48;;;;;;;6.80;6.20;;;13.90;99.90;;;;;;5014678;28;20449;-66
2021/08/29 06:47:14;;;;;;;6.13;5.73;;;13.80;99.90;;;;;;5014729;28;20460;-66
2021/08/29 06:49:41;;;;;;;5.77;5.30;;;13.80;99.90;;;;;;5014461;28;20452;-66
2021/08/29 06:52:09;;;;;;;5.10;4.67;;;13.80;99.90;;;;;;5014253;28;20836;-66
2021/08/29 06:54:36;;;;;;;5.17;4.77;;;13.90;99.90;;;;;;5014152;28;20472;-66
2021/08/29 06:57:03;;;;;;;5.20;4.80;;;13.80;99.90;;;;;;5014757;28;20464;-66
2021/08/29 06:59:29;;;;;;;4.30;4.00;;;13.90;99.90;;;;;;5014462;28;20457;-66
2021/08/29 07:01:56;;;;;;;4.80;4.40;;;13.90;99.90;;;;;;5013732;28;20485;-66
2021/08/29 07:04:23;;;;;;;3.10;2.90;;;13.80;99.90;;;;;;5014430;28;20466;-66
2021/08/29 07:06:49;;;;;;;3.20;3.10;;;13.80;99.90;;;;;;5015947;28;20452;-66
2021/08/29 07:09:17;;;;;;;3.23;3.03;;;13.80;99.90;;;;;;5017208;28;20536;-66
2021/08/29 07:11:44;;;;;;;4.20;3.90;;;13.80;99.90;;;;;;5017840;28;20476;-66
2021/08/29 07:14:11;;;;;;;4.53;4.23;;;13.80;99.90;;;;;;5018928;28;20457;-66
2021/08/29 07:16:37;;;;;;;4.00;3.80;;;13.90;99.90;;;;;;5018634;28;20453;-66
2021/08/29 07:19:04;;;;;;;3.57;3.27;;;13.80;99.90;;;;;;5017176;28;20460;-66
2021/08/29 07:21:31;;;;;;;3.70;3.20;;;13.90;99.90;;;;;;5014408;28;20472;-66
2021/08/29 07:23:58;;;;;;;3.60;3.40;;;13.80;99.90;;;;;;5014237;28;20563;-66
2021/08/29 07:26:26;;;;;;;3.10;3.00;;;13.80;99.90;;;;;;5013902;28;20452;-66
2021/08/29 07:28:53;;;;;;;3.90;3.70;;;13.70;99.90;;;;;;5014053;28;20866;-66
2021/08/29 07:31:20;;;;;;;3.90;3.70;;;13.80;99.90;;;;;;5014080;28;20472;-66
2021/08/29 07:33:46;;;;;;;3.30;3.10;;;13.90;99.90;;;;;;5013838;28;20956;-66
2021/08/29 07:36:13;;;;;;;3.60;3.30;;;13.90;99.90;;;;;;5014140;28;20554;-66
2021/08/29 07:38:40;;;;;;;3.10;3.00;;;13.90;99.90;;;;;;5015031;28;20464;-66
2021/08/29 07:41:06;;;;;;;3.27;3.07;;;13.70;99.90;;;;;;5014944;28;20502;-66
2021/08/29 07:43:35;;;;;;;2.90;2.70;;;13.80;99.90;;;;;;5014207;28;20457;-66
2021/08/29 07:46:01;;;;;;;3.40;3.20;;;13.80;99.90;;;;;;5014829;28;20459;-66
2021/08/29 07:48:28;;;;;;;3.33;3.13;;;13.80;99.90;;;;;;5014404;28;20798;-66
2021/08/29 07:50:55;;;;;;;2.90;2.80;;;13.80;99.90;;;;;;5014089;28;20499;-66
2021/08/29 07:53:21;;;;;;;2.73;2.63;;;13.70;99.90;;;;;;5017980;28;20804;-66
2021/08/29 07:55:48;;;;;;;2.87;2.77;;;13.60;99.90;;;;;;5017546;28;20982;-66
2021/08/29 07:58:15;;;;;;;6.43;3.07;;;13.60;99.90;;;;;;5017880;28;20461;-66
2021/08/29 08:00:43;;;;;;;2.73;2.50;;;13.60;99.90;;;;;;5017510;28;20484;-65
2021/08/29 08:03:09;;;;;;;2.73;2.63;;;13.60;99.90;;;;;;5017450;28;20908;-66
2021/08/29 08:05:36;;;;;;;2.90;2.80;;;13.70;99.90;;;;;;5017693;28;20563;-66
2021/08/29 08:08:03;;;;;;;2.80;2.70;;;13.70;99.90;;;;;;5017431;28;20560;-65
2021/08/29 08:10:30;;;;;;;3.43;3.07;;;13.70;99.90;;;;;;5017313;28;20532;-65
2021/08/29 08:12:58;;;;;;;2.83;2.73;;;13.80;99.90;;;;;;5017367;28;20453;-65
2021/08/29 08:15:25;;;;;;;3.60;3.40;;;13.90;99.90;;;;;;5017353;28;20481;-65
2021/08/29 08:17:53;;;;;;;4.57;2.83;;;14.10;99.90;;;;;;5017477;28;20456;-66
2021/08/29 08:20:20;;;;;;;3.20;3.00;;;14.20;99.90;;;;;;5017356;28;20456;-65
2021/08/29 08:22:48;;;;;;;2.97;2.77;;;14.20;99.90;;;;;;5017355;28;20782;-66
2021/08/29 08:25:15;;;;;;;5.97;3.50;;;14.30;99.90;;;;;;5017387;28;20448;-65
2021/08/29 08:27:42;;;;;;;3.23;3.03;;;14.30;99.90;;;;;;5017312;28;20452;-66
2021/08/29 08:30:10;;;;;;;3.20;2.83;;;14.30;99.90;;;;;;5017242;28;20452;-65
2021/08/29 08:32:37;;;;;;;2.40;2.30;;;14.30;99.90;;;;;;5017265;28;20479;-66
2021/08/29 08:35:05;;;;;;;3.13;2.83;;;14.30;99.90;;;;;;5017144;28;20474;-65
2021/08/29 08:37:32;;;;;;;1.93;1.87;;;14.40;99.90;;;;;;5017220;28;20456;-65
2021/08/29 08:39:59;;;;;;;2.77;2.67;;;14.50;99.90;;;;;;5017039;28;20456;-66
2021/08/29 08:42:26;;;;;;;2.37;2.27;;;14.40;99.90;;;;;;5017081;28;20476;-66
2021/08/29 08:44:53;;;;;;;2.43;2.23;;;14.40;99.90;;;;;;5017128;28;20464;-66
2021/08/29 08:47:21;;;;;;;1.63;1.53;;;14.60;99.90;;;;;;5016988;28;20479;-66
2021/08/29 08:49:48;;;;;;;2.10;2.00;;;14.60;99.90;;;;;;5016761;28;20452;-66
2021/08/29 08:52:19;;;;;;;1.77;1.67;;;14.70;99.90;;;;;;5016479;28;20984;-66
2021/08/29 08:54:48;;;;;;;1.90;1.90;;;14.80;99.90;;;;;;5016848;28;20449;-66
2021/08/29 08:57:18;;;;;;;1.63;1.63;;;14.80;99.90;;;;;;5016750;28;20460;-66
2021/08/29 08:59:45;;;;;;;1.60;1.60;;;14.90;99.90;;;;;;5016750;28;20544;-65
2021/08/29 09:02:13;;;;;;;1.50;1.50;;;15.00;99.90;;;;;;5016251;28;20517;-67
2021/08/29 09:04:40;;;;;;;1.60;1.60;;;15.10;99.90;;;;;;5015692;28;20488;-67
2021/08/29 09:07:07;;;;;;;1.53;1.53;;;15.00;99.90;;;;;;5017402;28;20475;-66
2021/08/29 09:09:35;;;;;;;1.43;1.43;;;15.00;99.90;;;;;;5016471;28;20453;-66
2021/08/29 09:12:03;;;;;;;1.53;1.43;;;15.10;99.90;;;;;;5016486;28;20477;-66
2021/08/29 09:14:41;;;;;;;1.83;1.80;;;15.10;99.90;;;;;;5019787;28;20460;-67
2021/08/29 09:17:28;;;;;;;1.70;1.60;;;15.00;99.90;;;;;;5024247;28;20503;-66
2021/08/29 09:20:15;;;;;;;1.23;1.23;;;15.00;99.90;;;;;;5017980;28;20507;-66
2021/08/29 09:22:42;;;;;;;2.57;2.47;;;15.00;99.90;;;;;;5016156;28;20909;-66
2021/08/29 09:25:14;;;;;;;2.00;1.90;;;15.00;99.90;;;;;;5016134;28;20453;-66
2021/08/29 09:27:45;;;;;;;1.60;1.50;;;14.90;99.90;;;;;;5016067;28;20940;-66
2021/08/29 09:30:13;;;;;;;3.73;3.53;;;14.80;99.90;;;;;;5016012;28;20453;-65
2021/08/29 09:32:52;;;;;;;1.97;1.87;;;14.80;99.90;;;;;;5016140;28;20460;-66
2021/08/29 09:35:20;;;;;;;1.80;1.70;;;14.90;99.90;;;;;;5016487;28;20468;-65
2021/08/29 09:37:46;;;;;;;1.60;1.60;;;15.00;99.90;;;;;;5016012;28;20460;-65
2021/08/29 09:40:17;;;;;;;3.20;1.67;;;15.00;99.90;;;;;;5015856;28;20486;-66
2021/08/29 09:42:44;;;;;;;1.90;1.90;;;15.00;99.90;;;;;;5015927;28;20457;-66
2021/08/29 09:45:21;;;;;;;1.50;1.50;;;15.10;99.90;;;;;;5015930;28;20954;-65
2021/08/29 09:47:48;;;;;;;1.10;1.10;;;15.30;99.90;;;;;;5016187;28;20437;-65
2021/08/29 09:50:15;;;;;;;1.00;1.00;;;15.30;99.90;;;;;;5015621;28;20453;-66
2021/08/29 09:52:42;;;;;;;0.93;0.93;;;15.50;99.90;;;;;;5015760;28;20456;-66
2021/08/29 09:55:10;;;;;;;0.80;0.80;;;15.50;99.90;;;;;;5015641;28;20457;-66
2021/08/29 09:57:38;;;;;;;1.23;0.80;;;15.50;99.90;;;;;;5015630;28;20464;-65
2021/08/29 10:00:09;;;;;;;0.77;0.77;;;15.60;99.90;;;;;;5015603;28;20476;-65
2021/08/29 10:02:36;;;;;;;1.47;0.90;;;15.60;99.90;;;;;;5015090;28;20512;-66
2021/08/29 10:05:14;;;;;;;0.83;0.83;;;15.70;99.90;;;;;;5015396;28;20456;-66
2021/08/29 10:07:58;;;;;;;0.70;0.70;;;15.60;99.90;;;;;;5015428;28;20499;-66
2021/08/29 10:10:27;;;;;;;0.90;0.90;;;15.70;99.90;;;;;;5015341;28;20491;-66
2021/08/29 10:12:56;;;;;;;1.07;1.07;;;15.70;99.90;;;;;;5015323;28;20457;-66
2021/08/29 10:15:23;;;;;;;1.07;1.07;;;15.70;99.90;;;;;;5016584;28;20956;-66
2021/08/29 10:17:51;;;;;;;1.93;1.83;;;15.70;99.90;;;;;;5016535;28;20452;-66
2021/08/29 10:20:21;;;;;;;3.60;3.40;;;15.70;99.90;;;;;;5015752;28;20551;-66
2021/08/29 10:26:12;;;;;;;1.80;1.80;;;15.80;99.90;;;;;;5014862;28;20840;-66
2021/08/29 10:28:45;;;;;;;2.30;1.57;;;15.70;99.90;;;;;;5014904;28;20460;-66
2021/08/29 10:31:14;;;;;;;1.90;1.90;;;15.60;99.90;;;;;;5014853;28;20484;-66
2021/08/29 10:33:47;;;;;;;1.70;1.70;;;15.70;99.90;;;;;;5014871;28;20456;-66
2021/08/29 10:36:15;;;;;;;2.07;1.97;;;15.70;99.90;;;;;;5014785;28;20507;-66
2021/08/29 10:38:43;;;;;;;2.73;2.63;;;15.70;99.90;;;;;;5014915;28;20487;-68
2021/08/29 10:41:10;;;;;;;2.73;2.63;;;15.80;99.90;;;;;;5014882;28;20472;-66
2021/08/29 10:43:39;;;;;;;3.43;3.23;;;15.80;99.90;;;;;;5021378;28;20944;-66
2021/08/29 10:46:09;;;;;;;3.87;2.77;;;15.90;99.90;;;;;;5021484;28;20448;-66
2021/08/29 10:48:37;;;;;;;3.07;2.87;;;16.00;99.90;;;;;;5014736;28;20499;-67
2021/08/29 10:51:04;;;;;;;3.00;2.90;;;16.10;99.90;;;;;;5014379;28;20976;-67
2021/08/29 10:53:33;;;;;;;2.93;2.83;;;16.10;99.90;;;;;;5014811;28;20460;-66
2021/08/29 10:56:35;;;;;;;3.80;3.50;;;16.10;99.90;;;;;;5015348;28;20480;-66
2021/08/29 10:59:29;;;;;;;3.43;3.23;;;16.20;99.90;;;;;;5014201;28;20436;-66
2021/08/29 11:02:11;;;;;;;2.73;2.63;;;16.10;99.90;;;;;;4979080;28;20583;-66
2021/08/29 11:04:58;;;;;;;2.57;2.43;;;16.20;99.90;;;;;;5014547;28;20461;-66
2021/08/29 11:07:51;;;;;;;2.80;2.60;;;16.10;99.90;;;;;;5009184;28;20457;-66
2021/08/29 11:10:49;;;;;;;3.17;2.97;;;16.00;99.90;;;;;;5014814;28;20452;-66
2021/08/29 11:13:35;;;;;;;3.67;2.47;;;16.00;99.90;;;;;;5014483;28;20447;-66
2021/08/29 11:16:19;;;;;;;3.20;3.00;;;16.10;99.90;;;;;;5014426;28;20547;-66
2021/08/29 11:19:13;;;;;;;3.27;3.07;;;16.30;99.90;;;;;;5014351;28;20448;-66
2021/08/29 11:22:15;;;;;;;3.73;3.53;;;16.20;99.90;;;;;;5014231;28;20560;-66
2021/08/29 11:25:05;;;;;;;4.73;4.33;;;16.20;99.90;;;;;;5014444;28;20458;-66
2021/08/29 11:27:55;;;;;;;4.37;4.17;;;16.10;99.90;;;;;;5011431;28;20812;-66
2021/08/29 11:30:24;;;;;;;5.53;5.03;;;16.10;99.90;;;;;;5014278;28;20495;-66
2021/08/29 11:33:02;;;;;;;5.63;5.23;;;16.10;99.90;;;;;;5014849;28;20942;-67
2021/08/29 11:35:32;;;;;;;2.60;2.50;;;16.10;99.90;;;;;;5014333;28;20448;-67
2021/08/29 11:38:05;;;;;;;2.23;2.13;;;16.10;99.90;;;;;;5014374;28;20464;-66
2021/08/29 11:40:59;;;;;;;2.60;2.50;;;16.10;99.90;;;;;;5014106;28;20441;-66
2021/08/29 11:43:34;;;;;;;3.23;3.03;;;16.10;99.90;;;;;;5014203;28;20448;-67
2021/08/29 11:46:10;;;;;;;4.20;3.97;;;16.30;99.90;;;;;;5014200;28;20440;-66
2021/08/29 11:48:38;;;;;;;4.30;4.10;;;16.30;99.90;;;;;;5013916;28;20807;-67
2021/08/29 11:51:06;;;;;;;5.03;4.73;;;16.20;99.90;;;;;;5014153;28;20473;-67
2021/08/29 11:53:44;;;;;;;4.83;4.53;;;16.20;99.90;;;;;;5014002;28;20457;-67
2021/08/29 11:56:11;;;;;;;4.87;4.57;;;16.20;99.90;;;;;;5014136;28;20830;-66
2021/08/29 11:58:38;;;;;;;5.00;4.80;;;16.30;99.90;;;;;;5014397;28;20452;-66
2021/08/29 12:01:06;;;;;;;3.93;3.73;;;16.40;99.90;;;;;;5015612;28;20484;-67
2021/08/29 12:03:34;;;;;;;3.80;3.60;;;16.40;99.90;;;;;;5020164;28;20453;-67
2021/08/29 12:06:08;;;;;;;4.10;3.90;;;16.40;99.90;;;;;;5023760;28;20453;-67
2021/08/29 12:08:49;;;;;;;4.57;4.37;;;16.40;99.90;;;;;;5020460;28;20543;-67
2021/08/29 12:11:17;;;;;;;4.80;4.50;;;16.60;99.90;;;;;;5017681;28;20507;-68
2021/08/29 12:13:44;;;;;;;5.20;4.90;;;16.60;99.90;;;;;;5017564;28;20456;-66
2021/08/29 12:16:12;;;;;;;4.27;3.97;;;16.70;99.90;;;;;;5022275;28;20453;-66
2021/08/29 12:18:40;;;;;;;4.93;4.60;;;16.70;99.90;;;;;;5027224;28;20453;-67
2021/08/29 12:21:10;;;;;;;5.00;4.70;;;16.70;99.90;;;;;;5021039;28;20475;-67
2021/08/29 12:23:38;;;;;;;5.03;4.73;;;16.70;99.90;;;;;;5015162;28;20936;-66
2021/08/29 12:26:07;;;;;;;4.60;4.20;;;16.80;99.90;;;;;;5014827;28;20460;-67
2021/08/29 12:28:34;;;;;;;4.37;4.07;;;16.90;99.90;;;;;;5014913;28;20464;-66
2021/08/29 12:31:02;;;;;;;4.37;4.17;;;17.00;99.90;;;;;;5016516;28;20480;-66
2021/08/29 12:33:30;;;;;;;4.50;4.20;;;17.00;99.90;;;;;;5015670;28;20456;-66
2021/08/29 12:35:58;;;;;;;5.10;4.73;;;17.10;99.90;;;;;;5014098;28;20455;-66
2021/08/29 12:38:27;;;;;;;4.30;4.00;;;17.20;99.90;;;;;;5014227;28;20456;-66
2021/08/29 12:40:55;;;;;;;4.90;4.60;;;17.20;99.90;;;;;;5017495;28;20483;-67
2021/08/29 12:43:24;;;;;;;4.67;4.37;;;17.30;99.90;;;;;;5017106;28;20452;-67
2021/08/29 12:45:51;;;;;;;5.77;5.37;;;17.20;99.90;;;;;;5017707;28;20453;-67
2021/08/29 12:48:19;;;;;;;5.87;5.30;;;17.10;99.90;;;;;;5017295;28;20515;-66
2021/08/29 12:50:49;;;;;;;5.60;5.30;;;16.80;99.90;;;;;;5017640;28;20488;-67
2021/08/29 12:53:19;;;;;;;6.17;5.77;;;16.70;99.90;;;;;;5018221;28;20460;-67
2021/08/29 12:55:52;;;;;;;5.90;5.50;;;16.70;99.90;;;;;;5017749;28;20444;-66
2021/08/29 12:58:20;;;;;;;6.40;5.90;;;16.80;99.90;;;;;;5017541;28;20485;-67
2021/08/29 13:00:51;;;;;;;7.00;6.50;;;16.90;99.90;;;;;;5017834;28;20520;-66
2021/08/29 13:03:19;;;;;;;6.03;5.63;;;17.00;99.90;;;;;;5018254;28;20445;-66
2021/08/29 13:05:47;;;;;;;7.73;7.13;;;17.00;99.90;;;;;;5018098;28;20463;-66
2021/08/29 13:08:15;;;;;;;6.50;6.00;;;16.90;99.90;;;;;;5017156;28;20948;-66
2021/08/29 13:11:01;;;;;;;7.00;6.50;;;16.90;99.90;;;;;;5016871;28;20473;-66
2021/08/29 13:13:35;;;;;;;7.30;6.80;;;16.90;99.90;;;;;;5017022;28;20496;-67
2021/08/29 13:16:02;;;;;;;7.90;7.20;;;16.90;99.90;;;;;;5016526;28;20469;-66
2021/08/29 13:18:29;;;;;;;7.60;7.03;;;16.80;99.90;;;;;;5017418;28;20482;-65
2021/08/29 13:20:56;;;;;;;7.80;7.20;;;16.80;99.90;;;;;;5016084;28;20472;-65
2021/08/29 13:23:24;;;;;;;7.67;7.07;;;16.80;99.90;;;;;;5016356;28;20507;-66
2021/08/29 13:25:52;;;;;;;8.33;7.60;;;16.70;99.90;;;;;;5016653;28;20453;-65
2021/08/29 13:28:20;;;;;;;8.60;7.90;;;16.70;99.90;;;;;;5018527;28;20449;-66
2021/08/29 13:30:47;;;;;;;7.87;7.23;;;16.60;99.90;;;;;;5017326;28;20479;-65
2021/08/29 13:33:18;;;;;;;8.57;7.90;;;16.60;99.90;;;;;;5016842;28;20463;-66
2021/08/29 13:35:45;;;;;;;7.73;7.10;;;16.60;99.90;;;;;;5016070;28;20459;-66
2021/08/29 13:38:14;;;;;;;8.63;7.93;;;16.40;99.90;;;;;;5015789;28;20487;-66
2021/08/29 13:40:53;;;;;;;9.13;8.50;;;16.30;99.90;;;;;;5016027;28;20477;-66
2021/08/29 13:43:25;;;;;;;8.07;7.37;;;16.30;99.90;;;;;;5015730;28;20461;-66
2021/08/29 13:46:00;;;;;;;9.53;8.60;;;16.40;99.90;;;;;;5015928;28;20437;-66
2021/08/29 13:48:28;;;;;;;9.80;8.50;;;16.30;99.90;;;;;;5015658;28;20475;-66
2021/08/29 13:50:55;;;;;;;9.23;8.53;;;16.30;99.90;;;;;;5015389;28;20837;-66
2021/08/29 13:53:28;;;;;;;8.87;8.17;;;16.30;99.90;;;;;;5015767;28;20453;-66
2021/08/29 13:55:55;;;;;;;7.50;6.80;;;16.40;99.90;;;;;;5015603;28;20448;-66
2021/08/29 13:58:23;;;;;;;7.93;7.27;;;16.50;99.90;;;;;;5015078;28;21011;-66
2021/08/29 14:00:51;;;;;;;7.07;6.47;;;16.60;99.90;;;;;;5015108;28;20503;-65
2021/08/29 14:03:17;;;;;;;7.43;6.93;;;16.80;99.90;;;;;;5015556;28;20451;-66
2021/08/29 14:05:44;;;;;;;7.60;7.00;;;16.80;99.90;;;;;;5015465;28;20460;-66
2021/08/29 14:08:11;;;;;;;7.93;7.30;;;16.80;99.90;;;;;;5015403;28;20813;-66
2021/08/29 14:10:38;;;;;;;7.10;6.43;;;16.70;99.90;;;;;;5015227;28;20485;-65
2021/08/29 14:13:05;;;;;;;6.93;6.43;;;16.70;99.90;;;;;;5015132;28;20959;-67
2021/08/29 14:15:33;;;;;;;8.00;7.40;;;16.60;99.90;;;;;;5015334;28;20457;-67
2021/08/29 14:18:00;;;;;;;7.70;7.10;;;16.60;99.90;;;;;;5015414;28;20485;-66
2021/08/29 14:20:27;;;;;;;7.13;6.53;;;16.60;99.90;;;;;;5014919;28;20527;-65
2021/08/29 14:22:55;;;;;;;8.13;7.53;;;16.70;99.90;;;;;;5014918;28;20537;-66
2021/08/29 14:25:23;;;;;;;6.60;6.10;;;16.70;99.90;;;;;;5017663;28;20449;-66
2021/08/29 14:27:52;;;;;;;7.40;6.80;;;16.80;99.90;;;;;;5020802;28;20810;-66
2021/08/29 14:30:20;;;;;;;6.90;6.40;;;16.80;99.90;;;;;;5019716;28;20452;-65
2021/08/29 14:32:48;;;;;;;6.70;6.20;;;16.80;99.90;;;;;;5015109;28;20457;-66
2021/08/29 14:35:16;;;;;;;6.20;5.80;;;16.60;99.90;;;;;;5014805;28;20456;-66
2021/08/29 14:37:43;;;;;;;6.67;6.17;;;16.50;99.90;;;;;;5014490;28;20990;-66
2021/08/29 14:40:11;;;;;;;7.07;6.47;;;16.50;99.90;;;;;;5014981;28;20548;-66
2021/08/29 14:42:38;;;;;;;7.40;6.80;;;16.50;99.90;;;;;;5014830;28;20473;-66
2021/08/29 14:45:06;;;;;;;7.77;7.17;;;16.50;99.90;;;;;;5014455;28;20971;-66
2021/08/29 14:47:32;;;;;;;8.30;7.60;;;16.50;99.90;;;;;;5014794;28;20445;-66
2021/08/29 14:50:00;;;;;;;7.43;6.83;;;16.50;99.90;;;;;;5015367;28;20468;-67
2021/08/29 14:52:28;;;;;;;7.80;7.10;;;16.50;99.90;;;;;;5014606;28;20480;-66
2021/08/29 14:54:55;;;;;;;7.87;7.20;;;16.50;99.90;;;;;;5014659;28;20456;-66
2021/08/29 14:57:22;;;;;;;8.37;7.53;;;16.50;99.90;;;;;;5014410;28;20480;-66
2021/08/29 14:59:49;;;;;;;7.83;7.10;;;16.50;99.90;;;;;;5014987;28;20456;-67
2021/08/29 15:02:15;;;;;;;7.40;6.70;;;16.40;99.90;;;;;;5013573;28;20481;-66
2021/08/29 15:04:43;;;;;;;7.50;6.80;;;16.40;99.90;;;;;;5014733;28;20464;-67
2021/08/29 15:07:11;;;;;;;6.97;6.37;;;16.50;99.90;;;;;;5014614;28;20488;-66
2021/08/29 15:09:37;;;;;;;6.87;6.27;;;16.50;99.90;;;;;;5015099;28;20476;-66
2021/08/29 15:12:05;;;;;;;7.57;6.97;;;16.60;99.90;;;;;;5015250;28;20527;-67
2021/08/29 15:14:31;;;;;;;7.47;6.87;;;16.60;99.90;;;;;;5014966;28;20467;-67
2021/08/29 15:16:58;;;;;;;8.40;7.00;;;16.50;99.90;;;;;;5014705;28;20484;-66
2021/08/29 15:19:25;;;;;;;6.43;5.93;;;16.50;99.90;;;;;;5014471;28;20464;-66
2021/08/29 15:21:52;;;;;;;6.10;5.70;;;16.50;99.90;;;;;;5014240;28;20480;-66
2021/08/29 15:24:21;;;;;;;5.87;5.23;;;16.40;99.90;;;;;;5014496;28;20449;-66
2021/08/29 15:26:47;;;;;;;5.07;4.67;;;16.40;99.90;;;;;;5015484;28;20449;-66
2021/08/29 15:29:14;;;;;;;5.27;4.87;;;16.30;99.90;;;;;;5014155;28;20820;-66
2021/08/29 15:31:41;;;;;;;4.97;4.57;;;16.30;99.90;;;;;;5014296;28;20469;-66
2021/08/29 15:34:07;;;;;;;5.83;5.33;;;16.30;99.90;;;;;;5013977;28;20452;-66
2021/08/29 15:36:35;;;;;;;5.10;4.70;;;16.20;99.90;;;;;;5014338;28;20456;-66
2021/08/29 15:39:02;;;;;;;4.90;4.60;;;16.20;99.90;;;;;;5014099;28;20508;-67
2021/08/29 15:41:30;;;;;;;5.73;5.33;;;16.10;99.90;;;;;;5014130;28;20477;-66
2021/08/29 15:43:57;;;;;;;4.77;4.40;;;16.10;99.90;;;;;;5014028;28;20456;-66
2021/08/29 15:46:24;;;;;;;5.30;4.90;;;16.10;99.90;;;;;;5014017;28;20464;-66
2021/08/29 15:48:51;;;;;;;6.10;5.70;;;16.10;99.90;;;;;;5013887;28;20459;-66
2021/08/29 15:51:18;;;;;;;6.17;5.67;;;16.10;99.90;;;;;;5014010;28;20484;-66
2021/08/29 15:53:45;;;;;;;6.90;6.27;;;16.10;99.90;;;;;;5014019;28;20471;-67
2021/08/29 15:56:12;;;;;;;6.37;5.77;;;16.10;99.90;;;;;;5014050;28;20453;-66
2021/08/29 15:58:40;;;;;;;7.40;6.80;;;16.10;99.90;;;;;;5013989;28;20477;-66
2021/08/29 16:01:07;;;;;;;7.60;7.00;;;16.10;99.90;;;;;;5013688;28;20495;-66
2021/08/29 16:03:35;;;;;;;7.57;6.97;;;16.10;99.90;;;;;;5015653;28;20971;-66
2021/08/29 16:06:01;;;;;;;8.67;7.90;;;16.10;99.90;;;;;;5018783;28;20448;-66
2021/08/29 16:08:28;;;;;;;9.70;8.90;;;16.00;99.90;;;;;;5020946;28;20824;-66
2021/08/29 16:10:55;;;;;;;10.57;9.67;;;16.00;99.90;;;;;;5015438;28;20480;-65
2021/08/29 16:13:22;;;;;;;10.80;9.80;;;15.80;99.90;;;;;;5016138;28;20867;-66
2021/08/29 16:15:53;;;;;;;11.63;10.40;;;15.80;99.90;;;;;;5017737;28;20456;-66
2021/08/29 16:18:20;;;;;;;11.93;10.70;;;15.80;99.90;;;;;;5017485;28;20556;-66
2021/08/29 16:20:47;;;;;;;14.10;10.27;;;15.80;99.90;;;;;;5017127;28;20934;-66
2021/08/29 16:23:14;;;;;;;11.13;10.10;;;15.80;99.90;;;;;;5017115;28;20492;-66
2021/08/29 16:25:41;;;;;;;12.07;10.97;;;15.80;99.90;;;;;;5017467;28;20457;-66
2021/08/29 16:28:08;;;;;;;11.60;10.40;;;15.80;99.90;;;;;;5017304;28;20456;-67
2021/08/29 16:30:35;;;;;;;11.77;10.67;;;15.80;99.90;;;;;;5017271;28;20523;-66
2021/08/29 16:33:03;;;;;;;12.13;10.60;;;15.90;99.90;;;;;;5017287;28;20457;-67
2021/08/29 16:35:30;;;;;;;11.87;10.77;;;15.90;99.90;;;;;;5017519;28;20840;-67
2021/08/29 16:37:57;;;;;;;11.80;10.60;;;15.90;99.90;;;;;;5017063;28;20483;-67
2021/08/29 16:40:24;;;;;;;12.60;11.33;;;15.90;99.90;;;;;;5016711;28;20944;-66
2021/08/29 16:42:50;;;;;;;13.07;11.77;;;15.90;99.90;;;;;;5016833;28;20453;-66
2021/08/29 16:45:19;;;;;;;17.70;11.90;;;15.90;99.90;;;;;;5017245;28;20452;-66
2021/08/29 16:47:45;;;;;;;13.87;12.47;;;15.90;99.90;;;;;;5016988;28;20457;-66
2021/08/29 16:50:14;;;;;;;13.93;11.10;;;15.90;99.90;;;;;;5017096;28;20456;-67
2021/08/29 16:52:41;;;;;;;13.60;12.30;;;15.90;99.90;;;;;;5016874;28;20460;-66
2021/08/29 16:55:09;;;;;;;14.93;13.43;;;16.00;99.90;;;;;;5016493;28;20457;-66